createdAt,value
2023-01-05T00:02:37.546Z,56.53
2023-01-05T00:05:39.971Z,56.30
2023-01-05T00:08:42.940Z,57.90
2023-01-05T00:12:06.397Z,57.58
2023-01-05T00:15:30.865Z,57.37
2023-01-05T00:18:53.359Z,57.33
2023-01-05T00:22:16.329Z,56.88
2023-01-05T00:25:22.224Z,57.67
2023-01-05T00:28:26.337Z,57.35
2023-01-05T00:31:28.671Z,57.11
2023-01-05T00:34:30.771Z,57.41
2023-01-05T00:37:34.752Z,58.01
2023-01-05T00:40:37.033Z,57.95
2023-01-05T00:43:39.140Z,57.94
2023-01-05T00:46:41.761Z,57.86
2023-01-05T00:49:45.264Z,57.34
2023-01-05T00:52:48.074Z,57.38
2023-01-05T00:56:01.335Z,57.52
2023-01-05T00:59:06.803Z,57.54
2023-01-05T01:02:13.819Z,58.10
2023-01-05T01:05:16.120Z,57.61
2023-01-05T01:08:21.045Z,58.56
2023-01-05T01:11:25.317Z,58.68
2023-01-05T01:14:27.700Z,59.19
2023-01-05T01:17:32.656Z,59.40
2023-01-05T01:20:34.742Z,59.01
2023-01-05T01:23:38.080Z,59.67
2023-01-05T01:26:40.341Z,59.70
2023-01-05T01:29:42.396Z,59.29
2023-01-05T01:32:44.500Z,60.26
2023-01-05T01:35:46.572Z,60.57
2023-01-05T01:38:49.368Z,60.97
2023-01-05T01:41:52.678Z,60.92
2023-01-05T01:45:12.387Z,60.61
2023-01-05T01:48:17.995Z,60.56
2023-01-05T01:51:33.931Z,61.77
2023-01-05T01:54:37.362Z,61.17
2023-01-05T01:57:42.523Z,61.02
2023-01-05T02:00:46.263Z,61.55
2023-01-05T02:03:48.654Z,60.77
2023-01-05T02:06:53.078Z,61.03
2023-01-05T02:09:55.367Z,61.28
2023-01-05T02:13:36.440Z,61.73
2023-01-05T02:16:58.234Z,61.41
2023-01-05T02:20:22.547Z,62.37
2023-01-05T02:23:55.010Z,62.86
2023-01-05T02:27:13.605Z,63.25
2023-01-05T02:30:35.094Z,63.65
2023-01-05T02:33:55.726Z,63.06
2023-01-05T02:37:36.913Z,62.90
2023-01-05T02:40:50.387Z,63.40
2023-01-05T02:43:56.582Z,62.98
2023-01-05T02:47:07.774Z,63.50
2023-01-05T02:50:15.999Z,63.06
2023-01-05T02:53:24.611Z,63.22
2023-01-05T02:56:46.838Z,63.83
2023-01-05T02:59:54.524Z,63.25
2023-01-05T03:03:04.472Z,62.94
2023-01-05T03:06:21.933Z,62.88
2023-01-05T03:09:29.629Z,63.12
2023-01-05T03:12:53.830Z,63.61
2023-01-05T03:16:02.199Z,63.17
2023-01-05T03:19:29.142Z,62.99
2023-01-05T03:22:51.565Z,62.76
2023-01-05T03:26:14.961Z,62.29
2023-01-05T03:29:36.116Z,62.55
2023-01-05T03:33:28.838Z,62.37
2023-01-05T03:36:39.829Z,62.41
2023-01-05T03:39:47.317Z,62.41
2023-01-05T03:42:51.474Z,63.17
2023-01-05T03:45:57.326Z,62.63
2023-01-05T03:49:07.097Z,62.71
2023-01-05T03:52:09.827Z,63.36
2023-01-05T03:55:15.679Z,63.09
2023-01-05T03:58:18.643Z,63.13
2023-01-05T04:01:24.287Z,62.65
2023-01-05T04:04:27.863Z,63.36
2023-01-05T04:07:30.132Z,63.40
2023-01-05T04:10:34.709Z,62.81
2023-01-05T04:13:37.430Z,62.66
2023-01-05T04:16:40.228Z,62.81
2023-01-05T04:19:51.903Z,62.99
2023-01-05T04:22:54.524Z,63.00
2023-01-05T04:25:58.568Z,63.16
2023-01-05T04:29:01.267Z,62.52
2023-01-05T04:32:07.980Z,63.48
2023-01-05T04:35:11.661Z,62.46
2023-01-05T04:38:15.959Z,62.35
2023-01-05T04:41:19.768Z,61.83
2023-01-05T04:44:25.441Z,62.44
2023-01-05T04:47:29.260Z,62.08
2023-01-05T04:50:32.133Z,62.03
2023-01-05T04:53:35.561Z,62.26
2023-01-05T04:56:39.513Z,62.26
2023-01-05T04:59:43.870Z,62.41
2023-01-05T05:02:47.271Z,62.37
2023-01-05T05:05:50.474Z,62.33
2023-01-05T05:08:52.839Z,66.09
2023-01-05T05:11:56.787Z,69.40
2023-01-05T05:15:01.959Z,74.38
2023-01-05T05:18:09.253Z,74.88
2023-01-05T05:21:16.709Z,74.12
2023-01-05T05:24:19.264Z,75.05
2023-01-05T05:27:22.388Z,74.93
2023-01-05T05:30:24.521Z,75.49
2023-01-05T05:33:28.347Z,75.08
2023-01-05T05:36:30.364Z,75.12
2023-01-05T05:39:32.464Z,74.83
2023-01-05T05:42:34.593Z,75.06
2023-01-05T05:45:36.689Z,73.66
2023-01-05T05:48:39.480Z,72.64
2023-01-05T05:51:41.785Z,68.82
2023-01-05T05:54:43.848Z,66.50
2023-01-05T05:57:46.037Z,64.41
2023-01-05T06:00:48.254Z,63.05
2023-01-05T06:03:50.387Z,59.63
2023-01-05T06:06:52.460Z,60.82
2023-01-05T06:09:54.641Z,64.02
2023-01-05T06:12:57.038Z,63.38
2023-01-05T06:15:59.098Z,63.94
2023-01-05T06:19:01.289Z,64.06
2023-01-05T06:22:04.538Z,64.15
2023-01-05T06:25:06.975Z,65.40
2023-01-05T06:28:09.465Z,66.08
2023-01-05T06:31:12.887Z,63.35
2023-01-05T06:34:15.120Z,65.15
2023-01-05T06:37:17.298Z,65.21
2023-01-05T06:40:19.908Z,67.21
2023-01-05T06:43:24.872Z,67.91
2023-01-05T06:46:29.371Z,68.36
2023-01-05T06:49:31.544Z,65.80
2023-01-05T06:52:37.182Z,64.88
2023-01-05T06:58:38.436Z,59.98
2023-01-05T07:01:40.592Z,64.57
2023-01-05T07:04:43.447Z,66.26
2023-01-05T07:07:45.517Z,66.51
2023-01-05T07:10:47.792Z,67.36
2023-01-05T07:13:57.398Z,68.98
2023-01-05T07:16:59.743Z,73.34
2023-01-05T07:20:02.672Z,79.76
2023-01-05T07:23:13.447Z,70.20
2023-01-05T07:26:16.552Z,60.53
2023-01-05T07:29:18.784Z,54.86
2023-01-05T07:32:20.930Z,51.51
2023-01-05T07:35:23.123Z,49.70
2023-01-05T07:38:25.284Z,48.45
2023-01-05T07:41:29.859Z,47.26
2023-01-05T07:47:55.503Z,44.58
2023-01-05T07:51:06.485Z,49.64
2023-01-05T07:54:09.148Z,54.21
2023-01-05T07:57:11.146Z,55.59
2023-01-05T08:00:15.526Z,57.03
2023-01-05T08:03:17.761Z,57.50
2023-01-05T08:06:21.695Z,57.60
2023-01-05T08:09:43.586Z,58.17
2023-01-05T08:13:04.510Z,58.39
2023-01-05T08:16:06.923Z,59.10
2023-01-05T08:19:13.997Z,61.33
2023-01-05T08:22:17.346Z,61.60
2023-01-05T08:25:21.468Z,62.43
2023-01-05T08:28:29.937Z,61.63
2023-01-05T08:31:39.496Z,61.39
2023-01-05T08:34:55.231Z,60.19
2023-01-05T08:37:57.966Z,60.11
2023-01-05T08:41:01.152Z,59.65
2023-01-05T08:44:06.346Z,58.99
2023-01-05T08:47:09.038Z,59.31
2023-01-05T08:50:12.062Z,59.21
2023-01-05T08:53:15.959Z,59.29
2023-01-05T08:56:21.457Z,63.05
2023-01-05T08:59:24.600Z,62.30
2023-01-05T09:02:27.039Z,63.49
2023-01-05T09:05:30.932Z,67.02
2023-01-05T09:08:34.127Z,68.47
2023-01-05T09:11:36.732Z,66.99
2023-01-05T09:14:52.176Z,69.88
2023-01-05T09:17:56.182Z,70.19
2023-01-05T09:21:01.530Z,70.89
2023-01-05T09:24:04.260Z,71.75
2023-01-05T09:27:09.296Z,74.39
2023-01-05T09:30:12.062Z,74.22
2023-01-05T09:33:15.196Z,76.57
2023-01-05T09:36:19.895Z,75.19
2023-01-05T09:39:24.939Z,74.41
2023-01-05T09:42:31.577Z,76.08
2023-01-05T09:45:33.933Z,78.14
2023-01-05T09:48:47.301Z,78.13
2023-01-05T09:51:55.228Z,79.78
2023-01-05T09:55:00.487Z,82.28
2023-01-05T09:58:12.780Z,83.89
2023-01-05T10:01:17.782Z,84.29
2023-01-05T10:04:30.074Z,83.15
2023-01-05T10:07:39.049Z,81.50
2023-01-05T10:11:36.323Z,82.76
2023-01-05T10:14:46.369Z,82.02
2023-01-05T10:17:48.734Z,81.87
2023-01-05T10:20:59.886Z,82.98
2023-01-05T10:24:08.200Z,80.86
2023-01-05T10:27:27.857Z,81.53
2023-01-05T10:30:57.658Z,81.03
2023-01-05T10:34:23.558Z,79.85
2023-01-05T10:37:42.766Z,79.15
2023-01-05T10:41:09.069Z,73.78
2023-01-05T10:44:53.498Z,74.83
2023-01-05T10:47:56.144Z,73.23
2023-01-05T10:50:59.698Z,72.54
2023-01-05T10:54:03.970Z,72.97
2023-01-05T10:57:36.625Z,71.79
2023-01-05T11:00:41.976Z,70.88
2023-01-05T11:04:25.249Z,70.60
2023-01-05T11:07:11.990Z,70.46
2023-01-05T11:10:33.365Z,67.24
2023-01-05T11:13:42.926Z,62.41
2023-01-05T11:16:52.262Z,57.94
2023-01-05T11:19:56.380Z,55.69
2023-01-05T11:22:59.054Z,54.16
2023-01-05T11:26:19.129Z,52.61
2023-01-05T11:29:22.026Z,51.98
2023-01-05T11:32:27.221Z,53.94
2023-01-05T11:35:38.131Z,55.56
2023-01-05T11:38:40.738Z,54.56
2023-01-05T11:41:44.423Z,50.71
2023-01-05T11:45:01.870Z,50.21
2023-01-05T11:48:10.061Z,51.94
2023-01-05T11:51:36.692Z,53.37
2023-01-05T11:54:39.519Z,51.38
2023-01-05T11:57:41.622Z,50.90
2023-01-05T12:01:08.312Z,52.66
2023-01-05T12:04:25.430Z,50.46
2023-01-05T12:07:37.088Z,50.96
2023-01-05T12:11:11.706Z,51.15
2023-01-05T12:14:35.031Z,49.50
2023-01-05T12:17:59.424Z,50.61
2023-01-05T12:21:21.089Z,53.21
2023-01-05T12:24:50.748Z,50.04
2023-01-05T12:28:10.904Z,51.99
2023-01-05T12:35:37.585Z,49.77
2023-01-05T12:39:11.405Z,50.68
2023-01-05T12:42:33.779Z,49.57
2023-01-05T12:46:00.280Z,49.86
2023-01-05T12:49:28.444Z,51.79
2023-01-05T12:52:49.975Z,49.87
2023-01-05T12:56:02.795Z,48.64
2023-01-05T12:59:50.505Z,49.65
2023-01-05T13:03:09.826Z,48.25
2023-01-05T13:06:24.519Z,48.22
2023-01-05T13:09:36.504Z,49.71
2023-01-05T13:12:43.836Z,48.32
2023-01-05T13:15:59.192Z,49.35
2023-01-05T13:19:25.014Z,50.57
2023-01-05T13:22:34.617Z,49.22
2023-01-05T13:25:49.684Z,49.50
2023-01-05T13:28:55.954Z,52.62
2023-01-05T13:32:08.139Z,50.86
2023-01-05T13:35:53.475Z,50.82
2023-01-05T13:39:16.169Z,53.14
2023-01-05T13:43:05.549Z,51.39
2023-01-05T13:46:39.032Z,50.31
2023-01-05T13:50:11.421Z,53.38
2023-01-05T13:53:24.982Z,51.09
2023-01-05T13:56:51.425Z,52.43
2023-01-05T14:00:06.640Z,52.28
2023-01-05T14:03:27.577Z,49.37
2023-01-05T14:06:38.338Z,48.90
2023-01-05T14:09:58.429Z,50.19
2023-01-05T14:13:02.093Z,49.13
2023-01-05T14:16:41.410Z,49.50
2023-01-05T14:19:59.278Z,50.95
2023-01-05T14:23:29.886Z,48.95
2023-01-05T14:27:10.702Z,48.59
2023-01-05T14:30:43.227Z,49.95
2023-01-05T14:34:14.688Z,48.67
2023-01-05T14:37:40.165Z,48.42
2023-01-05T14:40:46.876Z,49.84
2023-01-05T14:43:59.955Z,49.19
2023-01-05T14:47:03.239Z,49.27
2023-01-05T14:50:07.354Z,49.86
2023-01-05T14:53:43.402Z,49.58
2023-01-05T14:57:20.765Z,49.44
2023-01-05T15:01:03.275Z,52.61
2023-01-05T15:04:18.039Z,53.13
2023-01-05T15:11:11.805Z,56.86
2023-01-05T15:14:37.841Z,56.10
2023-01-05T15:17:59.971Z,51.11
2023-01-05T15:21:19.676Z,49.46
2023-01-05T15:24:42.771Z,49.18
2023-01-05T15:28:24.558Z,51.25
2023-01-05T15:31:49.053Z,55.18
2023-01-05T15:34:54.133Z,57.51
2023-01-05T15:37:56.371Z,60.02
2023-01-05T15:41:22.807Z,61.80
2023-01-05T15:44:37.552Z,62.58
2023-01-05T15:47:40.559Z,63.52
2023-01-05T15:50:48.736Z,63.66
2023-01-05T15:54:10.305Z,64.81
2023-01-05T15:57:23.614Z,65.72
2023-01-05T16:00:30.208Z,64.72
2023-01-05T16:03:38.673Z,64.14
2023-01-05T16:06:41.300Z,63.61
2023-01-05T16:09:50.876Z,62.91
2023-01-05T16:12:59.110Z,62.86
2023-01-05T16:16:07.163Z,62.04
2023-01-05T16:19:42.745Z,61.89
2023-01-05T16:23:08.737Z,61.56
2023-01-05T16:26:18.210Z,60.78
2023-01-05T16:29:49.809Z,61.21
2023-01-05T16:33:03.813Z,61.15
2023-01-05T16:36:20.208Z,61.90
2023-01-05T16:39:24.955Z,60.47
2023-01-05T16:42:40.740Z,59.49
2023-01-05T16:45:43.181Z,57.48
2023-01-05T16:48:50.292Z,56.69
2023-01-05T16:51:53.440Z,55.65
2023-01-05T16:55:27.591Z,55.71
2023-01-05T16:58:31.166Z,56.33
2023-01-05T17:01:43.151Z,56.72
2023-01-05T17:04:48.050Z,57.26
2023-01-05T17:07:59.820Z,57.65
2023-01-05T17:11:04.428Z,58.32
2023-01-05T17:14:07.873Z,57.98
2023-01-05T17:17:30.157Z,59.16
2023-01-05T17:20:44.386Z,57.81
2023-01-05T17:23:54.719Z,55.66
2023-01-05T17:26:57.703Z,55.17
2023-01-05T17:30:00.710Z,56.79
2023-01-05T17:33:03.243Z,59.14
2023-01-05T17:36:06.055Z,60.24
2023-01-05T17:39:21.128Z,59.71
2023-01-05T17:42:43.827Z,60.31
2023-01-05T17:45:47.480Z,60.31
2023-01-05T17:48:49.678Z,61.39
2023-01-05T17:51:52.275Z,61.74
2023-01-05T17:54:54.510Z,62.04
2023-01-05T17:57:58.181Z,62.05
2023-01-05T18:01:00.246Z,62.10
2023-01-05T18:04:03.526Z,62.64
2023-01-05T18:10:20.157Z,62.80
2023-01-05T18:13:24.613Z,62.96
2023-01-05T18:19:33.795Z,62.69
2023-01-05T18:22:40.929Z,63.68
2023-01-05T18:29:02.316Z,64.22
2023-01-05T18:32:05.636Z,64.44
2023-01-05T18:35:10.618Z,65.11
2023-01-05T18:38:13.789Z,65.36
2023-01-05T18:41:15.840Z,66.18
2023-01-05T18:44:19.299Z,67.05
2023-01-05T18:47:21.309Z,66.83
2023-01-05T18:50:25.202Z,66.79
2023-01-05T18:53:27.321Z,68.38
2023-01-05T18:56:29.378Z,69.08
2023-01-05T18:59:31.789Z,68.75
2023-01-05T19:02:33.891Z,67.25
2023-01-05T19:05:41.974Z,66.57
2023-01-05T19:08:44.891Z,65.85
2023-01-05T19:11:48.579Z,66.03
2023-01-05T19:14:57.378Z,69.91
2023-01-05T19:18:02.959Z,69.14
2023-01-05T19:21:08.320Z,68.02
2023-01-05T19:24:18.227Z,67.83
2023-01-05T19:27:28.300Z,73.09
2023-01-05T19:30:32.728Z,77.45
2023-01-05T19:33:37.461Z,82.70
2023-01-05T19:36:39.594Z,88.91
2023-01-05T19:39:41.987Z,96.10
2023-01-05T19:42:44.737Z,100.00
2023-01-05T19:45:49.065Z,100.00
2023-01-05T19:48:52.428Z,100.00
2023-01-05T19:51:56.404Z,100.00
2023-01-05T19:54:58.806Z,100.00
2023-01-05T19:58:00.943Z,100.00
2023-01-05T20:01:16.403Z,100.00
2023-01-05T20:04:18.630Z,100.00
2023-01-05T20:07:25.147Z,100.00
2023-01-05T20:10:27.200Z,100.00
2023-01-05T20:13:29.362Z,100.00
2023-01-05T20:16:33.102Z,100.00
2023-01-05T20:19:39.593Z,100.00
2023-01-05T20:22:45.055Z,100.00
2023-01-05T20:25:47.632Z,100.00
2023-01-05T20:28:50.863Z,100.00
2023-01-05T20:31:58.156Z,100.00
2023-01-05T20:35:00.746Z,100.00
2023-01-05T20:38:03.452Z,98.84
2023-01-05T20:41:20.370Z,95.31
2023-01-05T20:44:27.956Z,92.28
2023-01-05T20:47:39.437Z,90.61
2023-01-05T20:50:49.336Z,90.02
2023-01-05T20:53:53.146Z,88.94
2023-01-05T20:56:55.811Z,87.54
2023-01-05T20:59:58.128Z,86.59
2023-01-05T21:03:00.411Z,86.44
2023-01-05T21:06:02.612Z,86.40
2023-01-05T21:09:10.910Z,86.31
2023-01-05T21:12:15.378Z,85.79
2023-01-05T21:15:21.539Z,84.52
2023-01-05T21:18:24.783Z,83.83
2023-01-05T21:21:28.672Z,83.26
2023-01-05T21:24:32.006Z,82.33
2023-01-05T21:27:35.912Z,81.25
2023-01-05T21:30:38.648Z,80.97
2023-01-05T21:33:41.849Z,80.91
2023-01-05T21:36:49.053Z,80.51
2023-01-05T21:39:51.157Z,79.83
2023-01-05T21:42:54.670Z,79.38
2023-01-05T21:45:57.572Z,78.90
2023-01-05T21:49:00.023Z,77.95
2023-01-05T21:52:25.442Z,77.59
2023-01-05T21:55:46.894Z,77.32
2023-01-05T21:58:50.352Z,76.41
2023-01-05T22:01:53.497Z,75.57
2023-01-05T22:04:59.515Z,74.63
2023-01-05T22:08:01.578Z,74.46
2023-01-05T22:11:05.165Z,75.21
2023-01-05T22:14:08.794Z,74.99
2023-01-05T22:17:12.107Z,75.11
2023-01-05T22:20:16.180Z,74.35
2023-01-05T22:23:18.656Z,74.95
2023-01-05T22:26:22.685Z,74.19
2023-01-05T22:29:27.624Z,74.41
2023-01-05T22:32:30.798Z,73.92
2023-01-05T22:35:34.057Z,73.75
2023-01-05T22:38:38.925Z,72.95
2023-01-05T22:41:41.432Z,72.02
2023-01-05T22:44:43.676Z,72.42
2023-01-05T22:47:45.710Z,71.83
2023-01-05T22:50:48.626Z,71.92
2023-01-05T22:53:51.729Z,70.82
2023-01-05T22:56:55.570Z,70.84
2023-01-05T22:59:57.583Z,70.47
2023-01-05T23:03:01.068Z,70.36
2023-01-05T23:06:06.601Z,70.32
2023-01-05T23:09:13.389Z,75.13
2023-01-05T23:12:15.836Z,76.06
2023-01-05T23:15:18.510Z,76.39
2023-01-05T23:18:23.024Z,76.38
2023-01-05T23:21:27.172Z,76.26
2023-01-05T23:24:30.112Z,77.43
2023-01-05T23:27:35.024Z,77.78
2023-01-05T23:30:42.150Z,77.55
2023-01-05T23:33:46.893Z,78.07
2023-01-05T23:37:01.772Z,78.00
2023-01-05T23:40:07.496Z,77.97
2023-01-05T23:43:14.087Z,76.52
2023-01-05T23:46:20.832Z,76.54
2023-01-05T23:49:23.556Z,74.65
2023-01-05T23:52:25.547Z,74.31
2023-01-05T23:55:28.074Z,73.21
2023-01-05T23:58:32.628Z,74.20
